Startpagina
METAR-TAF:

METAR-TAF

Vliegvelden :

Luchthaven Vladivostok

Vladivostok, Rusland

breedte: 43-07N, lengte: 131-56E, hoogte: 184 m

Actueel weer

Dit bericht is 25 minuten geleden gemaakt, om 23:00 UTC
Wind 2 kt uit variabele richting
Temperatuur 12°C
Vochtigheid 76%
Druk 1012 hPa
Zicht 10 km of meer
Verspreide wolken op 3000 ft

METAR: UHWW 262300Z VRB01MPS 9999 SCT030 12/08 Q1012 R25L/0///70 NOSIG RMK QFE758

Tijdstip: 09:25 (23:25 UTC)

Verwachting

Dit bericht is 3 uur en het 25 minuten geleden gemaakt, om 20:00 UTC
Verwachting geldig van 26 om 21 UTC tot 27 om 21 UTC
Wind 6 kt uit het noordoosten
Zicht: 3100 m
Gebroken wolken op 1100 ft
nevel
Van 27 om 0000 UTC
Wind 6 kt uit het zuiden
Zicht: 4000 m
Verspreide wolken op 1100 ft
Gebroken wolken op 2000 ft, Cumulonimbus.
lichte regenbuien

TAF: UHWW 262000Z 2621/2721 05003MPS 3100 BR BKN011 FM270000 18003MPS 4000 -SHRA SCT011 BKN020CB

Waarnemingen en weersverwachtingen van meer dan 4000 vliegvelden (METAR en TAF).

De beschikbare stations zijn de gele en rode punten op de kaart.

Ga met uw muis naar het station om de naam te zien.

Klik dan om waarnemingen en weersverwachtingen te zien.

kaart wijzigen: klik op de groene knoppen met een zwart kruis om in te zoomen, op de groene knop met een streepje om uit te zoomen of op de groene pijlen voor aangrenzende kaarten.


METAR-TAF: